sensor_id;sensor_type;location;lat;lon;timestamp;P1;durP1;ratioP1;P2;durP2;ratioP2
6101;SDS011;3081;50.584;7.032;2023-05-16T00:01:10;9.80;;;4.93;;
6101;SDS011;3081;50.584;7.032;2023-05-16T00:03:39;7.60;;;4.17;;
6101;SDS011;3081;50.584;7.032;2023-05-16T00:06:06;9.27;;;4.60;;
6101;SDS011;3081;50.584;7.032;2023-05-16T00:08:33;8.53;;;3.20;;
6101;SDS011;3081;50.584;7.032;2023-05-16T00:11:00;6.40;;;2.93;;
6101;SDS011;3081;50.584;7.032;2023-05-16T00:13:27;5.67;;;2.63;;
6101;SDS011;3081;50.584;7.032;2023-05-16T00:15:55;14.27;;;5.10;;
6101;SDS011;3081;50.584;7.032;2023-05-16T00:18:23;8.73;;;4.20;;
6101;SDS011;3081;50.584;7.032;2023-05-16T00:20:52;9.57;;;4.40;;
6101;SDS011;3081;50.584;7.032;2023-05-16T00:23:19;11.73;;;3.87;;
6101;SDS011;3081;50.584;7.032;2023-05-16T00:25:46;6.30;;;2.90;;
6101;SDS011;3081;50.584;7.032;2023-05-16T00:28:13;7.50;;;3.43;;
6101;SDS011;3081;50.584;7.032;2023-05-16T00:30:40;11.00;;;4.87;;
6101;SDS011;3081;50.584;7.032;2023-05-16T00:33:07;7.00;;;3.20;;
6101;SDS011;3081;50.584;7.032;2023-05-16T00:35:34;8.57;;;4.40;;
6101;SDS011;3081;50.584;7.032;2023-05-16T00:38:02;10.10;;;4.63;;
6101;SDS011;3081;50.584;7.032;2023-05-16T00:40:30;6.70;;;4.20;;
6101;SDS011;3081;50.584;7.032;2023-05-16T00:42:57;8.63;;;4.07;;
6101;SDS011;3081;50.584;7.032;2023-05-16T00:45:24;13.37;;;4.57;;
6101;SDS011;3081;50.584;7.032;2023-05-16T00:47:51;9.60;;;4.90;;
6101;SDS011;3081;50.584;7.032;2023-05-16T00:50:18;7.73;;;3.90;;
6101;SDS011;3081;50.584;7.032;2023-05-16T00:52:45;11.37;;;5.77;;
6101;SDS011;3081;50.584;7.032;2023-05-16T00:55:14;4.80;;;3.37;;
6101;SDS011;3081;50.584;7.032;2023-05-16T00:57:41;8.70;;;4.83;;
6101;SDS011;3081;50.584;7.032;2023-05-16T01:00:08;9.10;;;5.50;;
6101;SDS011;3081;50.584;7.032;2023-05-16T01:02:36;7.67;;;4.43;;
6101;SDS011;3081;50.584;7.032;2023-05-16T01:05:03;4.47;;;3.27;;
6101;SDS011;3081;50.584;7.032;2023-05-16T01:07:31;6.47;;;3.63;;
6101;SDS011;3081;50.584;7.032;2023-05-16T01:09:58;6.90;;;4.30;;
6101;SDS011;3081;50.584;7.032;2023-05-16T01:12:28;8.70;;;3.47;;
6101;SDS011;3081;50.584;7.032;2023-05-16T01:15:04;6.87;;;4.17;;
6101;SDS011;3081;50.584;7.032;2023-05-16T01:17:35;9.03;;;4.83;;
6101;SDS011;3081;50.584;7.032;2023-05-16T01:20:12;6.97;;;4.17;;
6101;SDS011;3081;50.584;7.032;2023-05-16T01:22:56;7.07;;;4.20;;
6101;SDS011;3081;50.584;7.032;2023-05-16T01:25:38;8.13;;;4.17;;
6101;SDS011;3081;50.584;7.032;2023-05-16T01:28:18;6.03;;;3.50;;
6101;SDS011;3081;50.584;7.032;2023-05-16T01:30:45;9.27;;;5.70;;
6101;SDS011;3081;50.584;7.032;2023-05-16T01:33:12;11.50;;;4.80;;
6101;SDS011;3081;50.584;7.032;2023-05-16T01:35:42;9.43;;;4.80;;
6101;SDS011;3081;50.584;7.032;2023-05-16T01:38:15;4.67;;;2.77;;
6101;SDS011;3081;50.584;7.032;2023-05-16T01:40:47;6.63;;;3.13;;
6101;SDS011;3081;50.584;7.032;2023-05-16T01:43:23;6.27;;;3.40;;
6101;SDS011;3081;50.584;7.032;2023-05-16T01:45:57;4.97;;;3.07;;
6101;SDS011;3081;50.584;7.032;2023-05-16T01:48:29;5.07;;;3.53;;
6101;SDS011;3081;50.584;7.032;2023-05-16T01:51:03;4.37;;;2.77;;
6101;SDS011;3081;50.584;7.032;2023-05-16T01:53:32;6.90;;;4.00;;
6101;SDS011;3081;50.584;7.032;2023-05-16T01:56:03;4.97;;;2.67;;
6101;SDS011;3081;50.584;7.032;2023-05-16T01:58:35;5.70;;;3.60;;
6101;SDS011;3081;50.584;7.032;2023-05-16T02:01:03;5.70;;;2.50;;
6101;SDS011;3081;50.584;7.032;2023-05-16T02:03:31;5.77;;;3.43;;
6101;SDS011;3081;50.584;7.032;2023-05-16T02:05:58;6.93;;;4.57;;
6101;SDS011;3081;50.584;7.032;2023-05-16T02:08:25;6.10;;;3.40;;
6101;SDS011;3081;50.584;7.032;2023-05-16T02:10:52;4.67;;;3.00;;
6101;SDS011;3081;50.584;7.032;2023-05-16T02:13:20;8.27;;;4.87;;
6101;SDS011;3081;50.584;7.032;2023-05-16T02:15:48;6.23;;;3.63;;
6101;SDS011;3081;50.584;7.032;2023-05-16T02:18:15;8.53;;;4.80;;
6101;SDS011;3081;50.584;7.032;2023-05-16T02:20:43;6.93;;;3.10;;
6101;SDS011;3081;50.584;7.032;2023-05-16T02:23:10;7.20;;;4.63;;
6101;SDS011;3081;50.584;7.032;2023-05-16T02:25:36;3.30;;;2.10;;
6101;SDS011;3081;50.584;7.032;2023-05-16T02:28:03;9.80;;;3.80;;
6101;SDS011;3081;50.584;7.032;2023-05-16T02:30:30;9.67;;;4.63;;
6101;SDS011;3081;50.584;7.032;2023-05-16T02:32:59;7.90;;;5.57;;
6101;SDS011;3081;50.584;7.032;2023-05-16T02:35:26;6.60;;;3.60;;
6101;SDS011;3081;50.584;7.032;2023-05-16T02:37:52;5.70;;;2.77;;
6101;SDS011;3081;50.584;7.032;2023-05-16T02:40:19;5.93;;;3.53;;
6101;SDS011;3081;50.584;7.032;2023-05-16T02:42:46;6.10;;;3.73;;
6101;SDS011;3081;50.584;7.032;2023-05-16T02:45:13;8.03;;;4.70;;
6101;SDS011;3081;50.584;7.032;2023-05-16T02:47:40;7.20;;;3.70;;
6101;SDS011;3081;50.584;7.032;2023-05-16T02:50:09;10.10;;;3.93;;
6101;SDS011;3081;50.584;7.032;2023-05-16T02:52:36;10.73;;;5.60;;
6101;SDS011;3081;50.584;7.032;2023-05-16T02:55:03;7.30;;;3.73;;
6101;SDS011;3081;50.584;7.032;2023-05-16T02:57:31;10.40;;;4.77;;
6101;SDS011;3081;50.584;7.032;2023-05-16T02:59:58;9.77;;;5.50;;
6101;SDS011;3081;50.584;7.032;2023-05-16T03:02:25;8.67;;;4.67;;
6101;SDS011;3081;50.584;7.032;2023-05-16T03:04:52;11.37;;;4.70;;
6101;SDS011;3081;50.584;7.032;2023-05-16T03:07:20;8.03;;;4.90;;
6101;SDS011;3081;50.584;7.032;2023-05-16T03:09:47;8.97;;;4.60;;
6101;SDS011;3081;50.584;7.032;2023-05-16T03:12:14;9.20;;;5.13;;
6101;SDS011;3081;50.584;7.032;2023-05-16T03:14:41;6.07;;;3.17;;
6101;SDS011;3081;50.584;7.032;2023-05-16T03:17:08;12.23;;;4.90;;
6101;SDS011;3081;50.584;7.032;2023-05-16T03:19:35;6.77;;;4.27;;
6101;SDS011;3081;50.584;7.032;2023-05-16T03:22:02;6.80;;;4.10;;
6101;SDS011;3081;50.584;7.032;2023-05-16T03:24:31;12.63;;;5.33;;
6101;SDS011;3081;50.584;7.032;2023-05-16T03:26:58;15.03;;;8.03;;
6101;SDS011;3081;50.584;7.032;2023-05-16T03:29:25;18.23;;;9.03;;
6101;SDS011;3081;50.584;7.032;2023-05-16T03:31:52;22.20;;;11.83;;
6101;SDS011;3081;50.584;7.032;2023-05-16T03:34:19;23.13;;;11.73;;
6101;SDS011;3081;50.584;7.032;2023-05-16T03:36:46;12.37;;;7.23;;
6101;SDS011;3081;50.584;7.032;2023-05-16T03:39:13;25.87;;;12.73;;
6101;SDS011;3081;50.584;7.032;2023-05-16T03:41:42;20.03;;;9.23;;
6101;SDS011;3081;50.584;7.032;2023-05-16T03:44:09;18.77;;;9.70;;
6101;SDS011;3081;50.584;7.032;2023-05-16T03:46:36;11.63;;;5.70;;
6101;SDS011;3081;50.584;7.032;2023-05-16T03:49:03;16.63;;;7.13;;
6101;SDS011;3081;50.584;7.032;2023-05-16T03:51:30;19.13;;;10.50;;
6101;SDS011;3081;50.584;7.032;2023-05-16T03:53:57;27.20;;;14.50;;
6101;SDS011;3081;50.584;7.032;2023-05-16T03:56:24;31.30;;;15.10;;
6101;SDS011;3081;50.584;7.032;2023-05-16T03:58:52;26.60;;;11.50;;
6101;SDS011;3081;50.584;7.032;2023-05-16T04:01:19;30.77;;;12.87;;
6101;SDS011;3081;50.584;7.032;2023-05-16T04:03:46;14.07;;;7.60;;
6101;SDS011;3081;50.584;7.032;2023-05-16T04:06:14;17.03;;;9.17;;
6101;SDS011;3081;50.584;7.032;2023-05-16T04:08:41;23.33;;;10.90;;
6101;SDS011;3081;50.584;7.032;2023-05-16T04:11:09;24.97;;;11.43;;
6101;SDS011;3081;50.584;7.032;2023-05-16T04:13:36;22.47;;;11.30;;
6101;SDS011;3081;50.584;7.032;2023-05-16T04:16:04;28.43;;;12.67;;
6101;SDS011;3081;50.584;7.032;2023-05-16T04:18:32;25.27;;;13.00;;
6101;SDS011;3081;50.584;7.032;2023-05-16T04:20:59;37.47;;;13.40;;
6101;SDS011;3081;50.584;7.032;2023-05-16T04:23:26;23.40;;;9.47;;
6101;SDS011;3081;50.584;7.032;2023-05-16T04:25:53;18.40;;;7.93;;
6101;SDS011;3081;50.584;7.032;2023-05-16T04:28:20;22.73;;;10.50;;
6101;SDS011;3081;50.584;7.032;2023-05-16T04:30:47;27.70;;;12.93;;
6101;SDS011;3081;50.584;7.032;2023-05-16T04:33:15;21.17;;;8.70;;
6101;SDS011;3081;50.584;7.032;2023-05-16T04:35:42;30.63;;;11.67;;
6101;SDS011;3081;50.584;7.032;2023-05-16T04:38:09;28.33;;;11.37;;
6101;SDS011;3081;50.584;7.032;2023-05-16T04:40:36;37.77;;;12.20;;
6101;SDS011;3081;50.584;7.032;2023-05-16T04:43:05;29.47;;;12.00;;
6101;SDS011;3081;50.584;7.032;2023-05-16T04:45:32;29.57;;;11.90;;
6101;SDS011;3081;50.584;7.032;2023-05-16T04:47:59;27.77;;;13.53;;
6101;SDS011;3081;50.584;7.032;2023-05-16T04:50:28;33.53;;;11.57;;
6101;SDS011;3081;50.584;7.032;2023-05-16T04:52:55;27.73;;;10.77;;
6101;SDS011;3081;50.584;7.032;2023-05-16T04:55:22;12.90;;;6.07;;
6101;SDS011;3081;50.584;7.032;2023-05-16T04:57:49;26.80;;;11.53;;
6101;SDS011;3081;50.584;7.032;2023-05-16T05:00:16;35.70;;;13.33;;
6101;SDS011;3081;50.584;7.032;2023-05-16T05:02:43;30.00;;;12.10;;
6101;SDS011;3081;50.584;7.032;2023-05-16T05:05:10;21.20;;;7.10;;
6101;SDS011;3081;50.584;7.032;2023-05-16T05:07:39;21.07;;;9.53;;
6101;SDS011;3081;50.584;7.032;2023-05-16T05:10:07;33.57;;;11.50;;
6101;SDS011;3081;50.584;7.032;2023-05-16T05:12:35;22.93;;;9.57;;
6101;SDS011;3081;50.584;7.032;2023-05-16T05:15:03;34.83;;;11.70;;
6101;SDS011;3081;50.584;7.032;2023-05-16T05:17:30;28.00;;;12.27;;
6101;SDS011;3081;50.584;7.032;2023-05-16T05:19:57;33.90;;;12.30;;
6101;SDS011;3081;50.584;7.032;2023-05-16T05:22:24;32.03;;;13.07;;
6101;SDS011;3081;50.584;7.032;2023-05-16T05:24:52;21.77;;;10.20;;
6101;SDS011;3081;50.584;7.032;2023-05-16T05:27:19;16.93;;;8.70;;
6101;SDS011;3081;50.584;7.032;2023-05-16T05:29:46;32.50;;;13.00;;
6101;SDS011;3081;50.584;7.032;2023-05-16T05:32:13;30.33;;;10.37;;
6101;SDS011;3081;50.584;7.032;2023-05-16T05:34:40;24.07;;;7.73;;
6101;SDS011;3081;50.584;7.032;2023-05-16T05:37:07;22.10;;;9.67;;
6101;SDS011;3081;50.584;7.032;2023-05-16T05:39:34;25.70;;;10.03;;
6101;SDS011;3081;50.584;7.032;2023-05-16T05:42:02;15.23;;;7.77;;
6101;SDS011;3081;50.584;7.032;2023-05-16T05:44:29;29.70;;;10.17;;
6101;SDS011;3081;50.584;7.032;2023-05-16T05:46:57;22.83;;;10.30;;
6101;SDS011;3081;50.584;7.032;2023-05-16T05:49:24;23.00;;;8.83;;
6101;SDS011;3081;50.584;7.032;2023-05-16T05:51:52;13.80;;;6.00;;
6101;SDS011;3081;50.584;7.032;2023-05-16T05:54:19;26.53;;;9.80;;
6101;SDS011;3081;50.584;7.032;2023-05-16T05:56:46;13.83;;;7.33;;
6101;SDS011;3081;50.584;7.032;2023-05-16T05:59:14;26.00;;;9.73;;
6101;SDS011;3081;50.584;7.032;2023-05-16T06:01:41;18.60;;;5.60;;
6101;SDS011;3081;50.584;7.032;2023-05-16T06:04:09;22.10;;;6.43;;
6101;SDS011;3081;50.584;7.032;2023-05-16T06:06:36;14.03;;;5.73;;
6101;SDS011;3081;50.584;7.032;2023-05-16T06:09:04;13.83;;;2.97;;
6101;SDS011;3081;50.584;7.032;2023-05-16T06:11:31;16.57;;;5.13;;
6101;SDS011;3081;50.584;7.032;2023-05-16T06:13:57;18.77;;;6.00;;
6101;SDS011;3081;50.584;7.032;2023-05-16T06:16:26;21.40;;;5.60;;
6101;SDS011;3081;50.584;7.032;2023-05-16T06:18:53;21.00;;;5.30;;
6101;SDS011;3081;50.584;7.032;2023-05-16T06:21:20;13.83;;;5.97;;
6101;SDS011;3081;50.584;7.032;2023-05-16T06:23:46;18.43;;;4.07;;
6101;SDS011;3081;50.584;7.032;2023-05-16T06:26:13;16.70;;;4.13;;
6101;SDS011;3081;50.584;7.032;2023-05-16T06:28:40;16.93;;;3.63;;
6101;SDS011;3081;50.584;7.032;2023-05-16T06:31:07;7.93;;;2.90;;
6101;SDS011;3081;50.584;7.032;2023-05-16T06:33:35;19.00;;;3.50;;
6101;SDS011;3081;50.584;7.032;2023-05-16T06:36:02;14.33;;;3.97;;
6101;SDS011;3081;50.584;7.032;2023-05-16T06:38:29;15.33;;;4.47;;
6101;SDS011;3081;50.584;7.032;2023-05-16T06:40:58;14.63;;;4.27;;
6101;SDS011;3081;50.584;7.032;2023-05-16T06:43:24;15.00;;;3.63;;
6101;SDS011;3081;50.584;7.032;2023-05-16T06:45:52;8.27;;;3.53;;
6101;SDS011;3081;50.584;7.032;2023-05-16T06:48:19;19.37;;;4.00;;
6101;SDS011;3081;50.584;7.032;2023-05-16T06:50:48;14.23;;;3.97;;
6101;SDS011;3081;50.584;7.032;2023-05-16T06:53:15;13.70;;;3.10;;
6101;SDS011;3081;50.584;7.032;2023-05-16T06:55:43;14.40;;;3.90;;
6101;SDS011;3081;50.584;7.032;2023-05-16T06:58:10;19.93;;;4.00;;
6101;SDS011;3081;50.584;7.032;2023-05-16T07:00:36;12.13;;;2.97;;
6101;SDS011;3081;50.584;7.032;2023-05-16T07:03:03;12.10;;;3.57;;
6101;SDS011;3081;50.584;7.032;2023-05-16T07:05:30;14.80;;;3.73;;
6101;SDS011;3081;50.584;7.032;2023-05-16T07:07:59;9.60;;;3.00;;
6101;SDS011;3081;50.584;7.032;2023-05-16T07:10:26;14.73;;;4.70;;
6101;SDS011;3081;50.584;7.032;2023-05-16T07:12:53;12.93;;;4.50;;
6101;SDS011;3081;50.584;7.032;2023-05-16T07:15:20;7.87;;;2.90;;
6101;SDS011;3081;50.584;7.032;2023-05-16T07:17:47;25.27;;;6.27;;
6101;SDS011;3081;50.584;7.032;2023-05-16T07:20:14;21.17;;;4.37;;
6101;SDS011;3081;50.584;7.032;2023-05-16T07:22:41;7.50;;;2.20;;
6101;SDS011;3081;50.584;7.032;2023-05-16T07:25:10;11.27;;;3.97;;
6101;SDS011;3081;50.584;7.032;2023-05-16T07:27:38;11.00;;;2.33;;
6101;SDS011;3081;50.584;7.032;2023-05-16T07:30:09;10.03;;;3.40;;
6101;SDS011;3081;50.584;7.032;2023-05-16T07:32:37;9.63;;;2.30;;
6101;SDS011;3081;50.584;7.032;2023-05-16T07:35:04;9.40;;;3.20;;
6101;SDS011;3081;50.584;7.032;2023-05-16T07:37:31;7.47;;;2.40;;
6101;SDS011;3081;50.584;7.032;2023-05-16T07:39:58;12.17;;;3.60;;
6101;SDS011;3081;50.584;7.032;2023-05-16T07:42:27;11.57;;;3.30;;
6101;SDS011;3081;50.584;7.032;2023-05-16T07:44:53;5.87;;;2.30;;
6101;SDS011;3081;50.584;7.032;2023-05-16T07:47:21;12.67;;;2.10;;
6101;SDS011;3081;50.584;7.032;2023-05-16T07:49:48;6.83;;;1.50;;
6101;SDS011;3081;50.584;7.032;2023-05-16T07:52:15;9.23;;;2.20;;
6101;SDS011;3081;50.584;7.032;2023-05-16T07:54:41;8.20;;;1.93;;
6101;SDS011;3081;50.584;7.032;2023-05-16T07:57:10;9.50;;;1.80;;
6101;SDS011;3081;50.584;7.032;2023-05-16T07:59:40;6.50;;;1.60;;
6101;SDS011;3081;50.584;7.032;2023-05-16T08:02:07;9.23;;;1.73;;
6101;SDS011;3081;50.584;7.032;2023-05-16T08:04:34;9.60;;;1.83;;
6101;SDS011;3081;50.584;7.032;2023-05-16T08:07:01;7.00;;;1.57;;
6101;SDS011;3081;50.584;7.032;2023-05-16T08:09:28;20.90;;;2.60;;
6101;SDS011;3081;50.584;7.032;2023-05-16T08:11:55;11.77;;;1.90;;
6101;SDS011;3081;50.584;7.032;2023-05-16T08:14:27;13.33;;;1.73;;
6101;SDS011;3081;50.584;7.032;2023-05-16T08:16:56;10.77;;;1.63;;
6101;SDS011;3081;50.584;7.032;2023-05-16T08:19:23;9.93;;;1.40;;
6101;SDS011;3081;50.584;7.032;2023-05-16T08:21:50;10.57;;;1.60;;
6101;SDS011;3081;50.584;7.032;2023-05-16T08:24:17;8.10;;;1.63;;
6101;SDS011;3081;50.584;7.032;2023-05-16T08:26:44;10.20;;;1.53;;
6101;SDS011;3081;50.584;7.032;2023-05-16T08:29:11;10.10;;;1.60;;
6101;SDS011;3081;50.584;7.032;2023-05-16T08:31:38;10.10;;;1.73;;
6101;SDS011;3081;50.584;7.032;2023-05-16T08:34:06;11.17;;;1.90;;
6101;SDS011;3081;50.584;7.032;2023-05-16T08:36:34;17.10;;;2.33;;
6101;SDS011;3081;50.584;7.032;2023-05-16T08:39:01;9.70;;;2.33;;
6101;SDS011;3081;50.584;7.032;2023-05-16T08:41:29;10.47;;;2.43;;
6101;SDS011;3081;50.584;7.032;2023-05-16T08:43:56;10.03;;;2.87;;
6101;SDS011;3081;50.584;7.032;2023-05-16T08:46:23;11.00;;;3.10;;
6101;SDS011;3081;50.584;7.032;2023-05-16T08:48:51;8.17;;;2.17;;
6101;SDS011;3081;50.584;7.032;2023-05-16T08:51:20;10.43;;;2.53;;
6101;SDS011;3081;50.584;7.032;2023-05-16T08:53:51;14.00;;;3.03;;
6101;SDS011;3081;50.584;7.032;2023-05-16T08:56:19;10.27;;;3.07;;
6101;SDS011;3081;50.584;7.032;2023-05-16T08:58:48;15.40;;;3.80;;
6101;SDS011;3081;50.584;7.032;2023-05-16T09:01:16;15.27;;;3.37;;
6101;SDS011;3081;50.584;7.032;2023-05-16T09:03:44;12.27;;;3.43;;
6101;SDS011;3081;50.584;7.032;2023-05-16T09:06:12;10.90;;;3.40;;
6101;SDS011;3081;50.584;7.032;2023-05-16T09:08:41;12.50;;;3.00;;
6101;SDS011;3081;50.584;7.032;2023-05-16T09:11:08;12.90;;;3.63;;
6101;SDS011;3081;50.584;7.032;2023-05-16T09:13:36;14.13;;;3.70;;
6101;SDS011;3081;50.584;7.032;2023-05-16T09:16:07;12.80;;;4.00;;
6101;SDS011;3081;50.584;7.032;2023-05-16T09:18:35;13.27;;;2.40;;
6101;SDS011;3081;50.584;7.032;2023-05-16T09:21:02;11.50;;;4.23;;
6101;SDS011;3081;50.584;7.032;2023-05-16T09:23:29;14.17;;;3.97;;
6101;SDS011;3081;50.584;7.032;2023-05-16T09:25:58;11.43;;;3.97;;
6101;SDS011;3081;50.584;7.032;2023-05-16T09:28:25;9.87;;;3.50;;
6101;SDS011;3081;50.584;7.032;2023-05-16T09:30:52;11.03;;;3.57;;
6101;SDS011;3081;50.584;7.032;2023-05-16T09:33:21;11.10;;;3.70;;
6101;SDS011;3081;50.584;7.032;2023-05-16T09:35:53;11.77;;;3.50;;
6101;SDS011;3081;50.584;7.032;2023-05-16T09:38:21;16.90;;;3.30;;
6101;SDS011;3081;50.584;7.032;2023-05-16T09:40:48;13.57;;;3.07;;
6101;SDS011;3081;50.584;7.032;2023-05-16T09:43:17;9.63;;;2.93;;
6101;SDS011;3081;50.584;7.032;2023-05-16T09:45:47;10.43;;;2.20;;
6101;SDS011;3081;50.584;7.032;2023-05-16T09:48:14;14.17;;;2.80;;
6101;SDS011;3081;50.584;7.032;2023-05-16T09:50:45;8.80;;;2.63;;
6101;SDS011;3081;50.584;7.032;2023-05-16T09:53:15;15.03;;;3.63;;
6101;SDS011;3081;50.584;7.032;2023-05-16T09:55:42;13.90;;;5.60;;
6101;SDS011;3081;50.584;7.032;2023-05-16T09:58:09;14.60;;;4.47;;
6101;SDS011;3081;50.584;7.032;2023-05-16T10:00:37;9.93;;;3.30;;
6101;SDS011;3081;50.584;7.032;2023-05-16T10:03:06;14.30;;;3.73;;
6101;SDS011;3081;50.584;7.032;2023-05-16T10:05:33;13.30;;;3.50;;
6101;SDS011;3081;50.584;7.032;2023-05-16T10:08:02;14.50;;;3.30;;
6101;SDS011;3081;50.584;7.032;2023-05-16T10:10:29;10.40;;;2.27;;
6101;SDS011;3081;50.584;7.032;2023-05-16T10:13:01;11.13;;;2.40;;
6101;SDS011;3081;50.584;7.032;2023-05-16T10:15:30;10.20;;;2.80;;
6101;SDS011;3081;50.584;7.032;2023-05-16T10:17:59;9.53;;;2.60;;
6101;SDS011;3081;50.584;7.032;2023-05-16T10:20:27;8.20;;;1.80;;
6101;SDS011;3081;50.584;7.032;2023-05-16T10:22:55;9.93;;;2.60;;
6101;SDS011;3081;50.584;7.032;2023-05-16T10:25:25;10.73;;;2.00;;
6101;SDS011;3081;50.584;7.032;2023-05-16T10:27:57;11.90;;;2.73;;
6101;SDS011;3081;50.584;7.032;2023-05-16T10:30:25;10.30;;;2.57;;
6101;SDS011;3081;50.584;7.032;2023-05-16T10:32:52;13.47;;;3.20;;
6101;SDS011;3081;50.584;7.032;2023-05-16T10:35:21;10.13;;;1.63;;
6101;SDS011;3081;50.584;7.032;2023-05-16T10:37:49;13.43;;;2.40;;
6101;SDS011;3081;50.584;7.032;2023-05-16T10:40:16;13.63;;;2.20;;
6101;SDS011;3081;50.584;7.032;2023-05-16T10:42:53;10.90;;;2.30;;
6101;SDS011;3081;50.584;7.032;2023-05-16T10:45:21;12.70;;;2.07;;
6101;SDS011;3081;50.584;7.032;2023-05-16T10:47:52;9.47;;;2.30;;
6101;SDS011;3081;50.584;7.032;2023-05-16T10:53:11;9.97;;;1.90;;
6101;SDS011;3081;50.584;7.032;2023-05-16T10:55:48;14.23;;;1.53;;
6101;SDS011;3081;50.584;7.032;2023-05-16T10:58:38;8.30;;;1.40;;
6101;SDS011;3081;50.584;7.032;2023-05-16T11:01:13;14.23;;;2.20;;
6101;SDS011;3081;50.584;7.032;2023-05-16T11:06:32;10.07;;;1.90;;
6101;SDS011;3081;50.584;7.032;2023-05-16T11:09:06;10.07;;;2.00;;
6101;SDS011;3081;50.584;7.032;2023-05-16T11:11:41;7.83;;;1.47;;
6101;SDS011;3081;50.584;7.032;2023-05-16T11:14:16;8.43;;;1.70;;
6101;SDS011;3081;50.584;7.032;2023-05-16T11:16:47;8.70;;;1.63;;
6101;SDS011;3081;50.584;7.032;2023-05-16T11:19:27;10.37;;;2.70;;
6101;SDS011;3081;50.584;7.032;2023-05-16T11:22:10;8.43;;;1.60;;
6101;SDS011;3081;50.584;7.032;2023-05-16T11:24:47;11.73;;;1.90;;
6101;SDS011;3081;50.584;7.032;2023-05-16T11:27:21;8.40;;;1.60;;
6101;SDS011;3081;50.584;7.032;2023-05-16T11:29:48;9.27;;;1.77;;
6101;SDS011;3081;50.584;7.032;2023-05-16T11:32:18;11.10;;;2.07;;
6101;SDS011;3081;50.584;7.032;2023-05-16T11:34:47;7.30;;;1.50;;
6101;SDS011;3081;50.584;7.032;2023-05-16T11:37:15;8.67;;;1.90;;
6101;SDS011;3081;50.584;7.032;2023-05-16T11:39:44;10.17;;;1.70;;
6101;SDS011;3081;50.584;7.032;2023-05-16T11:42:11;8.30;;;1.80;;
6101;SDS011;3081;50.584;7.032;2023-05-16T11:44:38;8.73;;;1.73;;
6101;SDS011;3081;50.584;7.032;2023-05-16T11:47:05;16.23;;;1.80;;
6101;SDS011;3081;50.584;7.032;2023-05-16T11:49:32;8.47;;;1.60;;
6101;SDS011;3081;50.584;7.032;2023-05-16T11:52:01;9.53;;;1.93;;
6101;SDS011;3081;50.584;7.032;2023-05-16T11:54:29;10.03;;;1.57;;
6101;SDS011;3081;50.584;7.032;2023-05-16T11:56:58;8.90;;;1.77;;
6101;SDS011;3081;50.584;7.032;2023-05-16T11:59:26;9.00;;;1.40;;
6101;SDS011;3081;50.584;7.032;2023-05-16T12:01:53;11.00;;;1.63;;
6101;SDS011;3081;50.584;7.032;2023-05-16T12:04:20;10.90;;;1.57;;
6101;SDS011;3081;50.584;7.032;2023-05-16T12:06:56;8.50;;;1.47;;
6101;SDS011;3081;50.584;7.032;2023-05-16T12:09:25;8.40;;;1.30;;
6101;SDS011;3081;50.584;7.032;2023-05-16T12:11:53;9.80;;;1.23;;
6101;SDS011;3081;50.584;7.032;2023-05-16T12:14:21;12.67;;;1.30;;
6101;SDS011;3081;50.584;7.032;2023-05-16T12:16:49;8.27;;;1.40;;
6101;SDS011;3081;50.584;7.032;2023-05-16T12:19:17;8.70;;;1.30;;
6101;SDS011;3081;50.584;7.032;2023-05-16T12:21:44;11.03;;;2.00;;
6101;SDS011;3081;50.584;7.032;2023-05-16T12:24:11;9.70;;;1.30;;
6101;SDS011;3081;50.584;7.032;2023-05-16T12:26:39;13.43;;;2.17;;
6101;SDS011;3081;50.584;7.032;2023-05-16T12:29:09;8.20;;;1.30;;
6101;SDS011;3081;50.584;7.032;2023-05-16T12:31:36;9.83;;;1.70;;
6101;SDS011;3081;50.584;7.032;2023-05-16T12:34:13;11.37;;;2.03;;
6101;SDS011;3081;50.584;7.032;2023-05-16T12:36:41;7.23;;;1.20;;
6101;SDS011;3081;50.584;7.032;2023-05-16T12:39:10;10.20;;;1.10;;
6101;SDS011;3081;50.584;7.032;2023-05-16T12:41:39;13.67;;;1.50;;
6101;SDS011;3081;50.584;7.032;2023-05-16T12:44:11;8.00;;;1.30;;
6101;SDS011;3081;50.584;7.032;2023-05-16T12:46:41;14.60;;;2.13;;
6101;SDS011;3081;50.584;7.032;2023-05-16T12:49:08;10.73;;;1.60;;
6101;SDS011;3081;50.584;7.032;2023-05-16T12:51:35;7.70;;;1.50;;
6101;SDS011;3081;50.584;7.032;2023-05-16T12:54:08;8.90;;;1.70;;
6101;SDS011;3081;50.584;7.032;2023-05-16T12:56:37;8.80;;;1.77;;
6101;SDS011;3081;50.584;7.032;2023-05-16T12:59:04;9.50;;;1.90;;
6101;SDS011;3081;50.584;7.032;2023-05-16T13:01:32;10.90;;;1.67;;
6101;SDS011;3081;50.584;7.032;2023-05-16T13:03:59;9.73;;;1.93;;
6101;SDS011;3081;50.584;7.032;2023-05-16T13:06:28;9.93;;;1.70;;
6101;SDS011;3081;50.584;7.032;2023-05-16T13:08:55;10.50;;;1.50;;
6101;SDS011;3081;50.584;7.032;2023-05-16T13:11:22;8.27;;;1.37;;
6101;SDS011;3081;50.584;7.032;2023-05-16T13:13:49;13.43;;;1.70;;
6101;SDS011;3081;50.584;7.032;2023-05-16T13:16:15;8.50;;;1.57;;
6101;SDS011;3081;50.584;7.032;2023-05-16T13:18:44;8.57;;;1.60;;
6101;SDS011;3081;50.584;7.032;2023-05-16T13:21:11;8.40;;;1.63;;
6101;SDS011;3081;50.584;7.032;2023-05-16T13:23:38;9.00;;;1.40;;
6101;SDS011;3081;50.584;7.032;2023-05-16T13:26:04;8.30;;;1.43;;
6101;SDS011;3081;50.584;7.032;2023-05-16T13:28:31;9.20;;;1.67;;
6101;SDS011;3081;50.584;7.032;2023-05-16T13:30:58;9.07;;;1.47;;
6101;SDS011;3081;50.584;7.032;2023-05-16T13:33:25;11.67;;;1.20;;
6101;SDS011;3081;50.584;7.032;2023-05-16T13:35:54;8.47;;;1.50;;
6101;SDS011;3081;50.584;7.032;2023-05-16T13:38:21;8.50;;;1.30;;
6101;SDS011;3081;50.584;7.032;2023-05-16T13:40:48;9.57;;;1.80;;
6101;SDS011;3081;50.584;7.032;2023-05-16T13:43:15;8.10;;;1.13;;
6101;SDS011;3081;50.584;7.032;2023-05-16T13:45:43;8.77;;;2.00;;
6101;SDS011;3081;50.584;7.032;2023-05-16T13:48:13;9.83;;;1.40;;
6101;SDS011;3081;50.584;7.032;2023-05-16T13:50:40;9.13;;;1.77;;
6101;SDS011;3081;50.584;7.032;2023-05-16T13:53:08;11.90;;;1.87;;
6101;SDS011;3081;50.584;7.032;2023-05-16T13:55:35;9.77;;;1.60;;
6101;SDS011;3081;50.584;7.032;2023-05-16T13:58:02;11.73;;;2.03;;
6101;SDS011;3081;50.584;7.032;2023-05-16T14:00:29;15.93;;;2.00;;
6101;SDS011;3081;50.584;7.032;2023-05-16T14:02:56;6.53;;;1.10;;
6101;SDS011;3081;50.584;7.032;2023-05-16T14:05:23;7.20;;;1.37;;
6101;SDS011;3081;50.584;7.032;2023-05-16T14:07:50;8.43;;;1.90;;
6101;SDS011;3081;50.584;7.032;2023-05-16T14:10:19;10.00;;;1.60;;
6101;SDS011;3081;50.584;7.032;2023-05-16T14:12:45;8.87;;;1.57;;
6101;SDS011;3081;50.584;7.032;2023-05-16T14:15:13;6.60;;;0.97;;
6101;SDS011;3081;50.584;7.032;2023-05-16T14:17:40;7.50;;;1.20;;
6101;SDS011;3081;50.584;7.032;2023-05-16T14:20:07;8.10;;;1.03;;
6101;SDS011;3081;50.584;7.032;2023-05-16T14:22:34;9.67;;;1.20;;
6101;SDS011;3081;50.584;7.032;2023-05-16T14:25:02;10.97;;;1.33;;
6101;SDS011;3081;50.584;7.032;2023-05-16T14:27:31;6.47;;;0.80;;
6101;SDS011;3081;50.584;7.032;2023-05-16T14:29:58;6.80;;;1.10;;
6101;SDS011;3081;50.584;7.032;2023-05-16T14:32:25;5.73;;;0.67;;
6101;SDS011;3081;50.584;7.032;2023-05-16T14:34:52;5.10;;;0.60;;
6101;SDS011;3081;50.584;7.032;2023-05-16T14:37:19;4.90;;;0.50;;
6101;SDS011;3081;50.584;7.032;2023-05-16T14:39:46;4.30;;;0.60;;
6101;SDS011;3081;50.584;7.032;2023-05-16T14:42:14;4.93;;;0.77;;
6101;SDS011;3081;50.584;7.032;2023-05-16T14:44:43;8.33;;;2.93;;
6101;SDS011;3081;50.584;7.032;2023-05-16T14:47:10;4.67;;;0.80;;
6101;SDS011;3081;50.584;7.032;2023-05-16T14:49:37;3.80;;;0.70;;
6101;SDS011;3081;50.584;7.032;2023-05-16T14:52:05;3.80;;;0.80;;
6101;SDS011;3081;50.584;7.032;2023-05-16T14:54:32;5.00;;;0.60;;
6101;SDS011;3081;50.584;7.032;2023-05-16T14:56:59;5.40;;;0.97;;
6101;SDS011;3081;50.584;7.032;2023-05-16T14:59:27;5.30;;;1.17;;
6101;SDS011;3081;50.584;7.032;2023-05-16T15:01:56;5.37;;;1.10;;
6101;SDS011;3081;50.584;7.032;2023-05-16T15:04:24;5.20;;;0.77;;
6101;SDS011;3081;50.584;7.032;2023-05-16T15:06:52;8.67;;;1.10;;
6101;SDS011;3081;50.584;7.032;2023-05-16T15:09:19;7.43;;;0.70;;
6101;SDS011;3081;50.584;7.032;2023-05-16T15:11:46;8.27;;;1.37;;
6101;SDS011;3081;50.584;7.032;2023-05-16T15:14:13;8.30;;;1.23;;
6101;SDS011;3081;50.584;7.032;2023-05-16T15:16:40;7.80;;;1.30;;
6101;SDS011;3081;50.584;7.032;2023-05-16T15:19:08;7.37;;;0.90;;